Date,TemperatureHighF,TemperatureAvgF,TemperatureLowF,DewpointHighF,DewpointAvgF,DewpointLowF,HumidityHigh,HumidityAvg,HumidityLow,PressureMaxIn,PressureMinIn,WindSpeedMaxMPH,WindSpeedAvgMPH,GustSpeedMaxMPH,PrecipitationSumIn
2013-12-1,67.7,47.8,39.1,48.1,42.1,37.2,94,82,48,30.36,30.23,5,0,5,0.00
2013-12-2,66.8,52.0,38.2,52.4,45.5,36.3,94,80,51,30.24,29.96,14,1,14,0.00
2013-12-3,57.5,49.5,35.1,52.0,34.8,28.6,92,59,34,29.98,29.85,9,1,14,0.00
2013-12-4,54.2,40.0,29.7,30.8,27.2,22.1,88,64,31,30.14,29.98,6,1,6,0.00
2013-12-5,51.5,36.4,24.8,31.4,25.0,16.7,84,66,29,30.20,30.12,7,1,7,0.00
2013-12-6,48.2,38.3,25.7,45.7,32.2,22.7,96,80,45,30.24,29.93,16,1,16,0.64
2013-12-7,47.7,38.2,29.3,42.6,30.2,24.0,97,76,42,30.31,29.95,13,1,13,0.00
2013-12-8,48.2,34.8,26.5,29.9,25.2,22.1,92,71,38,30.37,30.26,6,0,6,0.00
2013-12-9,51.7,35.1,23.6,29.7,24.4,20.5,89,68,35,30.47,30.36,8,1,8,0.00
2013-12-10,53.7,37.2,24.9,31.3,26.9,21.8,89,69,37,30.47,30.24,5,0,5,0.00
2013-12-11,58.7,40.3,28.7,36.2,31.0,26.0,90,72,40,30.29,30.21,5,0,5,0.00
2013-12-12,59.3,44.5,29.0,36.3,33.0,26.7,91,67,38,30.33,30.20,6,0,6,0.00
2013-12-13,62.9,43.5,29.9,38.0,33.5,27.5,93,71,37,30.38,30.27,5,0,5,0.01
2013-12-14,64.5,44.3,31.7,42.2,36.0,29.6,93,75,41,30.44,30.33,9,0,9,0.00
2013-12-15,62.4,44.2,30.4,40.4,35.4,28.5,93,74,40,30.41,30.27,5,0,5,0.00
2013-12-16,65.2,52.2,34.8,43.0,39.7,32.5,91,65,42,30.26,30.14,8,0,8,0.00
2013-12-17,64.1,47.0,34.9,43.6,38.4,32.4,92,74,44,30.22,30.05,5,0,5,0.00
2013-12-18,61.7,46.9,37.1,47.5,40.6,34.4,92,80,51,30.05,29.78,7,0,7,0.00
2013-12-19,63.1,50.9,35.7,39.3,28.2,12.9,91,49,19,29.98,29.76,17,2,17,0.00
2013-12-20,67.1,48.2,32.6,32.1,26.5,17.3,73,47,15,30.04,29.95,9,1,9,0.00
2013-12-21,68.1,51.0,39.2,48.8,41.9,32.2,90,73,46,30.11,29.99,9,1,9,0.00
2013-12-22,67.3,48.8,36.2,44.5,40.0,34.1,93,74,40,30.32,30.10,8,1,8,0.00
2013-12-23,67.5,48.5,35.5,44.2,39.3,33.1,93,73,42,30.43,30.31,6,0,6,0.00
2013-12-24,68.8,50.1,37.8,45.7,40.7,35.4,92,73,41,30.37,30.22,6,0,6,0.00
2013-12-25,66.2,46.5,32.7,42.4,37.4,30.6,93,73,39,30.35,30.22,5,0,5,0.00
2013-12-26,67.0,46.4,32.1,42.4,35.6,29.2,90,69,39,30.30,30.17,5,0,5,0.00
2013-12-27,57.6,43.5,33.1,40.2,34.9,29.9,89,73,47,30.27,30.16,4,0,4,0.00
2013-12-28,66.8,45.1,29.7,39.1,33.1,27.2,92,66,33,30.20,30.05,5,0,5,0.00
2013-12-29,66.4,46.4,32.2,35.3,30.9,26.8,82,58,28,30.22,30.10,8,1,8,0.00
2013-12-30,64.1,45.4,31.6,39.2,33.2,27.1,85,65,37,30.29,30.20,7,0,7,0.00
2013-12-31,62.1,45.4,35.3,42.6,35.8,31.1,87,71,41,30.32,30.18,4,0,6,0.00